Time;durP1;ratioP1;P1;durP2;ratioP2;P2;SDS_P1;SDS_P2;PMS_P1;PMS_P2;Temp;Humidity;BMP_temperature;BMP_pressure;BME280_temperature;BME280_humidity;BME280_pressure;Samples;Min_cycle;Max_cycle;Signal;HPM_P1;HPM_P2
2022/09/16 00:01:27;;;;;;;;;;;;;;;21.66;73.92;96323.83;575911;245;69139;-68
2022/09/16 00:03:56;;;;;;;;;;;;;;;21.66;74.12;96329.17;575922;246;68745;-68
2022/09/16 00:06:25;;;;;;;;;;;;;;;21.66;73.89;96326.50;575937;246;65101;-68
2022/09/16 00:08:54;;;;;;;;;;;;;;;21.66;73.84;96331.84;575983;246;68565;-68
2022/09/16 00:11:21;;;;;;;;;;;;;;;21.67;73.87;96338.80;575983;246;68364;-68
2022/09/16 00:13:49;;;;;;;;;;;;;;;21.67;73.79;96339.59;575951;246;65086;-68
2022/09/16 00:16:18;;;;;;;;;;;;;;;21.66;73.82;96332.66;575935;246;68556;-68
2022/09/16 00:18:46;;;;;;;;;;;;;;;21.67;73.80;96354.84;575832;245;69546;-68
2022/09/16 00:21:14;;;;;;;;;;;;;;;21.66;73.96;96356.73;575982;246;65081;-68
2022/09/16 00:23:42;;;;;;;;;;;;;;;21.66;74.02;96353.23;575943;246;68514;-68
2022/09/16 00:26:09;;;;;;;;;;;;;;;21.67;74.01;96357.52;575936;246;68600;-67
2022/09/16 00:28:37;;;;;;;;;;;;;;;21.66;74.06;96353.23;575934;246;65013;-68
2022/09/16 00:31:04;;;;;;;;;;;;;;;21.66;73.93;96359.41;575956;246;68693;-68
2022/09/16 00:33:32;;;;;;;;;;;;;;;21.66;74.00;96356.73;575955;246;66765;-68
2022/09/16 00:36:07;;;;;;;;;;;;;;;21.66;73.96;96353.23;575964;246;62999;-68
2022/09/16 00:38:34;;;;;;;;;;;;;;;21.66;73.98;96359.41;575926;246;68598;-68
2022/09/16 00:41:02;;;;;;;;;;;;;;;21.66;73.91;96354.05;575914;246;68792;-69
2022/09/16 00:43:31;;;;;;;;;;;;;;;21.67;74.02;96360.20;575913;246;64910;-68
2022/09/16 00:46:02;;;;;;;;;;;;;;;21.67;74.06;96360.20;575375;246;69244;-67
2022/09/16 00:48:31;;;;;;;;;;;;;;;21.67;74.05;96360.20;575996;246;68771;-70
2022/09/16 00:51:03;;;;;;;;;;;;;;;21.66;74.09;96353.23;575974;246;65075;-69
2022/09/16 00:53:32;;;;;;;;;;;;;;;21.67;74.05;96365.55;575979;246;68969;-69
2022/09/16 00:56:01;;;;;;;;;;;;;;;21.66;73.98;96359.41;575947;246;68612;-69
2022/09/16 00:58:36;;;;;;;;;;;;;;;21.66;74.02;96351.38;575972;246;65061;-69
2022/09/16 01:01:04;;;;;;;;;;;;;;;21.66;74.02;96354.05;575929;245;69012;-68
2022/09/16 01:03:33;;;;;;;;;;;;;;;21.66;74.02;96348.71;576001;246;66678;-68
2022/09/16 01:06:01;;;;;;;;;;;;;;;21.66;74.06;96354.05;575774;246;63069;-68
2022/09/16 01:08:29;;;;;;;;;;;;;;;21.66;74.09;96347.89;575954;246;66656;-68
2022/09/16 01:10:56;;;;;;;;;;;;;;;21.66;74.14;96348.71;575954;246;68732;-68
2022/09/16 01:13:24;;;;;;;;;;;;;;;21.66;74.11;96350.56;575966;246;65130;-68
2022/09/16 01:16:08;;;;;;;;;;;;;;;21.65;73.96;96352.45;575990;246;68857;-68
2022/09/16 01:18:53;;;;;;;;;;;;;;;21.66;73.99;96354.05;575839;246;68779;-68
2022/09/16 01:21:25;;;;;;;;;;;;;;;21.65;74.12;96347.10;575959;246;65133;-68
2022/09/16 01:23:54;;;;;;;;;;;;;;;21.66;74.15;96348.71;575950;246;68815;-68
2022/09/16 01:26:36;;;;;;;;;;;;;;;21.66;74.17;96359.41;575976;246;68570;-68
2022/09/16 01:29:05;;;;;;;;;;;;;;;21.66;74.11;96353.23;573233;246;63093;-68
2022/09/16 01:31:49;;;;;;;;;;;;;;;21.66;74.24;96356.73;575998;246;66735;-68
2022/09/16 01:34:21;;;;;;;;;;;;;;;21.66;74.26;96355.91;575841;246;69045;-69
2022/09/16 01:37:02;;;;;;;;;;;;;;;21.66;74.15;96347.89;575772;246;65066;-70
2022/09/16 01:39:39;;;;;;;;;;;;;;;21.66;74.24;96345.22;575903;246;68851;-70
2022/09/16 01:42:15;;;;;;;;;;;;;;;21.66;74.26;96339.87;575780;246;68757;-68
2022/09/16 01:44:44;;;;;;;;;;;;;;;21.66;74.16;96343.36;575943;246;65450;-67
2022/09/16 01:47:17;;;;;;;;;;;;;;;21.65;74.21;96341.75;575967;246;66743;-68
2022/09/16 01:49:46;;;;;;;;;;;;;;;21.66;74.20;96353.23;575959;242;68769;-68
2022/09/16 01:52:15;;;;;;;;;;;;;;;21.66;74.14;96356.73;575980;246;65417;-68
2022/09/16 01:54:44;;;;;;;;;;;;;;;21.66;74.11;96358.59;575866;246;68510;-68
2022/09/16 01:57:13;;;;;;;;;;;;;;;21.65;74.20;96360.47;575961;246;68661;-68
2022/09/16 01:59:42;;;;;;;;;;;;;;;21.66;74.24;96369.28;575870;246;65362;-68
2022/09/16 02:02:11;;;;;;;;;;;;;;;21.66;74.20;96366.61;575910;245;69308;-68
2022/09/16 02:04:40;;;;;;;;;;;;;;;21.65;74.32;96379.19;575674;246;68634;-68
2022/09/16 02:07:09;;;;;;;;;;;;;;;21.66;74.27;96377.30;575906;246;65104;-69
2022/09/16 02:09:38;;;;;;;;;;;;;;;21.66;74.30;96377.30;575921;246;68803;-68
2022/09/16 02:12:07;;;;;;;;;;;;;;;21.66;74.34;96379.98;575924;246;65388;-68
2022/09/16 02:14:39;;;;;;;;;;;;;;;21.66;74.19;96382.66;575948;246;62740;-68
2022/09/16 02:17:08;;;;;;;;;;;;;;;21.66;74.25;96374.63;575941;242;66709;-68
2022/09/16 02:19:43;;;;;;;;;;;;;;;21.65;74.31;96389.89;575625;246;66695;-68
2022/09/16 02:22:12;;;;;;;;;;;;;;;21.66;74.21;96379.98;575960;246;65046;-68
2022/09/16 02:24:41;;;;;;;;;;;;;;;21.65;74.19;96383.75;575921;246;69006;-69
2022/09/16 02:27:10;;;;;;;;;;;;;;;21.66;74.33;96379.98;575949;246;66657;-69
2022/09/16 02:29:39;;;;;;;;;;;;;;;21.65;74.29;96389.89;575936;246;65008;-69
2022/09/16 02:32:08;;;;;;;;;;;;;;;21.66;74.24;96390.67;575991;242;66615;-69
2022/09/16 02:34:37;;;;;;;;;;;;;;;21.65;74.21;96386.42;575941;246;68723;-69
2022/09/16 02:37:06;;;;;;;;;;;;;;;21.65;74.29;96379.19;575957;246;63163;-69
2022/09/16 02:39:36;;;;;;;;;;;;;;;21.65;74.42;96368.49;575930;246;68913;-68
2022/09/16 02:42:04;;;;;;;;;;;;;;;21.65;74.38;96365.03;575976;246;68181;-68
2022/09/16 02:44:33;;;;;;;;;;;;;;;21.65;74.35;96365.03;575984;246;63066;-68
2022/09/16 02:47:02;;;;;;;;;;;;;;;21.65;74.32;96359.69;575937;246;68831;-68
2022/09/16 02:49:38;;;;;;;;;;;;;;;21.65;74.27;96368.49;575854;246;69135;-68
2022/09/16 02:52:08;;;;;;;;;;;;;;;21.64;74.25;96374.94;575949;246;65083;-68
2022/09/16 02:54:36;;;;;;;;;;;;;;;21.66;74.17;96374.63;575913;246;68841;-68
2022/09/16 02:57:04;;;;;;;;;;;;;;;21.66;74.27;96377.30;575946;246;68727;-68
2022/09/16 02:59:32;;;;;;;;;;;;;;;21.66;74.42;96386.15;575982;246;65074;-68
2022/09/16 03:02:00;;;;;;;;;;;;;;;21.65;74.39;96381.86;575917;245;68724;-68
2022/09/16 03:04:28;;;;;;;;;;;;;;;21.65;74.39;96376.52;575951;246;66744;-68
2022/09/16 03:06:55;;;;;;;;;;;;;;;21.65;74.54;96368.49;575959;246;63113;-68
2022/09/16 03:09:23;;;;;;;;;;;;;;;21.65;74.59;96373.05;575922;246;66413;-68
2022/09/16 03:12:08;;;;;;;;;;;;;;;21.65;74.54;96367.70;575977;246;68723;-68
2022/09/16 03:14:53;;;;;;;;;;;;;;;21.65;74.69;96365.82;575969;246;65111;-68
2022/09/16 03:17:37;;;;;;;;;;;;;;;21.66;74.56;96355.91;575934;246;66918;-68
2022/09/16 03:20:06;;;;;;;;;;;;;;;21.65;74.64;96365.03;575944;246;66651;-70
2022/09/16 03:22:51;;;;;;;;;;;;;;;21.65;74.61;96352.45;575860;242;65212;-70
2022/09/16 03:25:38;;;;;;;;;;;;;;;21.65;74.64;96357.01;575963;246;66733;-69
2022/09/16 03:28:14;;;;;;;;;;;;;;;21.65;74.58;96360.47;575937;246;68898;-69
2022/09/16 03:30:44;;;;;;;;;;;;;;;21.65;74.63;96363.14;575948;246;65383;-69
2022/09/16 03:33:19;;;;;;;;;;;;;;;21.66;74.69;96363.94;575259;246;68853;-69
2022/09/16 03:35:48;;;;;;;;;;;;;;;21.64;74.69;96361.56;575710;245;66834;-69
2022/09/16 03:38:16;;;;;;;;;;;;;;;21.65;74.65;96359.69;575940;246;65076;-69
2022/09/16 03:40:44;;;;;;;;;;;;;;;21.65;74.72;96362.36;575922;246;68803;-69
2022/09/16 03:43:12;;;;;;;;;;;;;;;21.65;74.69;96362.36;575921;246;68734;-69
2022/09/16 03:45:41;;;;;;;;;;;;;;;21.65;74.66;96375.73;575976;246;65161;-69
2022/09/16 03:48:09;;;;;;;;;;;;;;;21.66;74.68;96371.95;575987;246;68818;-69
2022/09/16 03:50:37;;;;;;;;;;;;;;;21.65;74.73;96360.47;575908;246;66640;-69
2022/09/16 03:53:04;;;;;;;;;;;;;;;21.65;74.72;96370.38;575947;246;63040;-68
2022/09/16 03:55:32;;;;;;;;;;;;;;;21.65;74.72;96362.36;575951;246;66717;-68
2022/09/16 03:57:59;;;;;;;;;;;;;;;21.65;74.75;96363.14;575952;246;66344;-68
2022/09/16 04:00:28;;;;;;;;;;;;;;;21.65;74.78;96357.01;575969;246;65164;-69
2022/09/16 04:02:55;;;;;;;;;;;;;;;21.65;74.78;96357.80;575927;245;68772;-68
2022/09/16 04:05:23;;;;;;;;;;;;;;;21.66;74.70;96369.28;575827;246;67057;-68
2022/09/16 04:07:50;;;;;;;;;;;;;;;21.65;74.76;96362.36;575958;246;63162;-68
2022/09/16 04:10:18;;;;;;;;;;;;;;;21.65;74.75;96378.40;575973;246;68993;-68
2022/09/16 04:12:46;;;;;;;;;;;;;;;21.65;74.80;96375.73;575916;246;66618;-68
2022/09/16 04:15:13;;;;;;;;;;;;;;;21.64;74.84;96374.94;575957;246;62962;-68
2022/09/16 04:17:41;;;;;;;;;;;;;;;21.65;74.83;96383.75;575939;246;66665;-68
2022/09/16 04:20:09;;;;;;;;;;;;;;;21.65;74.87;96375.73;575944;246;68532;-68
2022/09/16 04:22:36;;;;;;;;;;;;;;;21.65;74.92;96381.86;576000;246;65195;-69
2022/09/16 04:25:04;;;;;;;;;;;;;;;21.65;75.00;96386.42;575977;246;66179;-69
2022/09/16 04:27:32;;;;;;;;;;;;;;;21.65;74.88;96381.08;575955;246;68461;-69
2022/09/16 04:30:00;;;;;;;;;;;;;;;21.64;74.99;96377.61;575946;246;65108;-69
2022/09/16 04:32:27;;;;;;;;;;;;;;;21.65;74.99;96379.19;575929;246;68724;-69
2022/09/16 04:34:55;;;;;;;;;;;;;;;21.64;74.89;96399.00;575923;246;68570;-70
2022/09/16 04:37:22;;;;;;;;;;;;;;;21.65;74.80;96389.89;575954;246;63031;-69
2022/09/16 04:39:50;;;;;;;;;;;;;;;21.65;74.92;96399.80;575931;246;66531;-69
2022/09/16 04:42:18;;;;;;;;;;;;;;;21.65;75.00;96387.21;575952;246;68555;-69
2022/09/16 04:44:45;;;;;;;;;;;;;;;21.65;74.98;96378.40;575923;246;65054;-69
2022/09/16 04:47:13;;;;;;;;;;;;;;;21.65;74.99;96378.40;575959;246;66679;-69
2022/09/16 04:49:40;;;;;;;;;;;;;;;21.64;75.08;96382.17;575971;246;66862;-69
2022/09/16 04:52:08;;;;;;;;;;;;;;;21.65;75.00;96383.75;575930;246;63128;-68
2022/09/16 04:54:35;;;;;;;;;;;;;;;21.65;75.04;96381.08;575892;246;68982;-69
2022/09/16 04:57:03;;;;;;;;;;;;;;;21.64;75.01;96390.98;575918;246;68706;-69
2022/09/16 04:59:30;;;;;;;;;;;;;;;21.65;75.10;96389.09;575925;246;63057;-69
2022/09/16 05:01:58;;;;;;;;;;;;;;;21.65;75.10;96386.42;577720;245;66868;-69
2022/09/16 05:04:26;;;;;;;;;;;;;;;21.65;75.08;96389.09;579280;245;68827;-69
2022/09/16 05:06:53;;;;;;;;;;;;;;;21.65;75.00;96389.09;579270;245;65116;-69
2022/09/16 05:09:21;;;;;;;;;;;;;;;21.64;75.08;96390.19;579277;245;68844;-71
2022/09/16 05:11:49;;;;;;;;;;;;;;;21.64;75.06;96406.23;579301;245;66442;-69
2022/09/16 05:14:17;;;;;;;;;;;;;;;21.65;74.94;96397.12;579310;245;65204;-69
2022/09/16 05:16:45;;;;;;;;;;;;;;;21.65;75.08;96399.80;579266;241;68774;-69
2022/09/16 05:19:13;;;;;;;;;;;;;;;21.64;75.15;96385.63;579265;245;66943;-68
2022/09/16 05:21:40;;;;;;;;;;;;;;;21.64;75.16;96385.63;579256;245;62866;-69
2022/09/16 05:24:09;;;;;;;;;;;;;;;21.64;75.18;96387.52;579293;245;66648;-69
2022/09/16 05:26:38;;;;;;;;;;;;;;;21.64;75.05;96382.95;579318;245;66566;-69
2022/09/16 05:29:07;;;;;;;;;;;;;;;21.65;75.02;96389.09;579288;245;64967;-68
2022/09/16 05:31:36;;;;;;;;;;;;;;;21.65;75.01;96379.19;579277;245;68877;-68
2022/09/16 05:34:04;;;;;;;;;;;;;;;21.65;75.08;96373.05;579311;245;68989;-69
2022/09/16 05:36:34;;;;;;;;;;;;;;;21.65;75.11;96373.05;579328;245;65146;-68
2022/09/16 05:39:02;;;;;;;;;;;;;;;21.64;75.07;96372.27;579299;245;68352;-69
2022/09/16 05:41:31;;;;;;;;;;;;;;;21.65;75.15;96373.05;579391;245;49880;-69
2022/09/16 05:43:59;;;;;;;;;;;;;;;21.66;75.13;96369.28;579282;245;63173;-68
2022/09/16 05:46:27;;;;;;;;;;;;;;;21.64;75.12;96372.27;579323;245;69010;-69
2022/09/16 05:48:55;;;;;;;;;;;;;;;21.64;75.06;96376.83;579299;245;66735;-69
2022/09/16 05:51:23;;;;;;;;;;;;;;;21.65;75.14;96378.40;579311;245;65100;-69
2022/09/16 05:53:51;;;;;;;;;;;;;;;21.64;75.15;96374.94;579317;245;68826;-69
2022/09/16 05:56:20;;;;;;;;;;;;;;;21.65;75.22;96379.19;579268;245;67627;-69
2022/09/16 05:58:48;;;;;;;;;;;;;;;21.64;75.11;96380.28;579290;245;65118;-70
2022/09/16 06:01:19;;;;;;;;;;;;;;;21.65;75.16;96378.40;579312;242;48126;-70
2022/09/16 06:03:47;;;;;;;;;;;;;;;21.64;75.19;96374.94;579317;245;68748;-70
2022/09/16 06:06:22;;;;;;;;;;;;;;;21.65;75.22;96378.40;574548;244;65322;-67
2022/09/16 06:08:50;;;;;;;;;;;;;;;21.65;75.28;96376.52;580826;244;68884;-68
2022/09/16 06:11:18;;;;;;;;;;;;;;;21.66;75.44;96385.33;581130;244;68667;-68
2022/09/16 06:13:46;;;;;;;;;;;;;;;21.66;75.70;96379.98;581130;244;65186;-69
2022/09/16 06:16:14;;;;;;;;;;;;;;;21.63;73.95;96378.67;581081;244;68854;-68
2022/09/16 06:18:41;;;;;;;;;;;;;;;21.64;73.64;96377.61;581044;244;68747;-69
2022/09/16 06:21:12;;;;;;;;;;;;;;;21.66;73.75;96377.30;581171;244;65082;-69
2022/09/16 06:23:41;;;;;;;;;;;;;;;21.65;73.93;96379.19;581103;244;66756;-68
2022/09/16 06:26:12;;;;;;;;;;;;;;;21.66;74.34;96374.63;581157;244;66473;-68
2022/09/16 06:28:40;;;;;;;;;;;;;;;21.68;74.55;96380.49;581135;244;63015;-68
2022/09/16 06:31:09;;;;;;;;;;;;;;;21.69;74.75;96376.75;581110;244;66689;-70
2022/09/16 06:33:37;;;;;;;;;;;;;;;21.68;75.03;96372.47;584597;241;69063;-69
2022/09/16 06:36:06;;;;;;;;;;;;;;;21.69;75.21;96374.08;587410;241;62990;-70
2022/09/16 06:38:35;;;;;;;;;;;;;;;21.69;75.32;96368.73;587412;241;65410;-69
2022/09/16 06:41:04;;;;;;;;;;;;;;;21.70;75.36;96364.95;587424;241;68784;-71
2022/09/16 06:43:32;;;;;;;;;;;;;;;21.69;75.40;96374.87;587342;241;63205;-69
2022/09/16 06:46:01;;;;;;;;;;;;;;;21.70;75.49;96378.33;587362;241;66697;-69
2022/09/16 06:48:28;;;;;;;;;;;;;;;21.70;75.47;96375.66;587450;241;68748;-68
2022/09/16 06:50:59;;;;;;;;;;;;;;;21.71;75.53;96375.34;587403;241;65113;-68
2022/09/16 06:53:27;;;;;;;;;;;;;;;21.71;75.58;96372.67;587401;241;66448;-69
2022/09/16 06:55:55;;;;;;;;;;;;;;;21.72;75.59;96370.81;587392;241;66660;-69
2022/09/16 06:58:23;;;;;;;;;;;;;;;21.71;75.53;96372.67;587363;241;65065;-68
2022/09/16 07:00:50;;;;;;;;;;;;;;;21.72;75.63;96365.47;587349;240;69040;-68
2022/09/16 07:03:18;;;;;;;;;;;;;;;21.73;75.60;96375.07;589313;240;66683;-69
2022/09/16 07:05:47;;;;;;;;;;;;;;;21.74;75.64;96371.30;589284;240;63035;-68
2022/09/16 07:08:14;;;;;;;;;;;;;;;21.78;74.63;96371.53;589025;240;69052;-69
2022/09/16 07:10:42;;;;;;;;;;;;;;;21.80;74.76;96370.16;589281;240;68752;-70
2022/09/16 07:13:09;;;;;;;;;;;;;;;21.79;74.59;96379.25;589199;240;62928;-69
2022/09/16 07:15:37;;;;;;;;;;;;;;;21.78;74.93;96374.20;589351;240;66885;-69
2022/09/16 07:18:04;;;;;;;;;;;;;;;21.77;75.31;96375.27;589323;240;66745;-69
2022/09/16 07:20:32;;;;;;;;;;;;;;;21.77;75.31;96378.77;589348;240;65230;-69
2022/09/16 07:22:59;;;;;;;;;;;;;;;21.76;75.33;96379.84;589318;240;68905;-71
2022/09/16 07:25:27;;;;;;;;;;;;;;;21.77;75.28;96377.95;589320;240;69575;-69
2022/09/16 07:27:54;;;;;;;;;;;;;;;21.76;75.33;96379.84;589332;240;65058;-69
2022/09/16 07:30:22;;;;;;;;;;;;;;;21.76;75.35;96385.18;589273;240;68871;-68
2022/09/16 07:32:49;;;;;;;;;;;;;;;21.77;75.71;96386.79;589272;240;68707;-70
2022/09/16 07:35:17;;;;;;;;;;;;;;;21.77;75.27;96380.63;589317;240;64920;-69
2022/09/16 07:37:44;;;;;;;;;;;;;;;21.78;75.71;96380.34;589304;240;68791;-71
2022/09/16 07:40:12;;;;;;;;;;;;;;;21.78;75.26;96380.34;589356;240;68492;-69
2022/09/16 07:42:41;;;;;;;;;;;;;;;21.78;75.85;96369.64;589323;240;65021;-69
2022/09/16 07:45:08;;;;;;;;;;;;;;;21.78;75.87;96374.20;589305;240;69019;-69
2022/09/16 07:47:36;;;;;;;;;;;;;;;21.77;75.91;96373.42;589285;240;69031;-69
2022/09/16 07:50:03;;;;;;;;;;;;;;;21.77;75.91;96370.74;589322;240;65081;-69
2022/09/16 07:52:31;;;;;;;;;;;;;;;21.77;75.97;96370.74;589316;240;66689;-68
2022/09/16 07:54:58;;;;;;;;;;;;;;;21.78;75.95;96372.32;589282;240;66513;-68
2022/09/16 07:57:26;;;;;;;;;;;;;;;21.77;75.96;96370.74;589309;240;63014;-69
2022/09/16 07:59:54;;;;;;;;;;;;;;;21.77;75.92;96357.37;589288;240;68762;-74
2022/09/16 08:02:21;;;;;;;;;;;;;;;21.78;76.05;96358.16;589257;240;66698;-73
2022/09/16 08:04:49;;;;;;;;;;;;;;;21.80;74.75;96358.64;589369;240;65067;-72
2022/09/16 08:07:17;;;;;;;;;;;;;;;21.81;74.93;96366.38;589276;240;68688;-68
2022/09/16 08:09:44;;;;;;;;;;;;;;;21.81;74.51;96363.71;589302;240;68825;-65
2022/09/16 08:12:13;;;;;;;;;;;;;;;21.80;74.95;96364.81;589266;240;63061;-68
2022/09/16 08:14:40;;;;;;;;;;;;;;;21.79;75.15;96363.20;589312;240;69061;-66
2022/09/16 08:17:08;;;;;;;;;;;;;;;21.81;75.71;96357.57;589338;240;68715;-72
2022/09/16 08:19:38;;;;;;;;;;;;;;;21.81;75.73;96355.69;589237;240;62949;-69
2022/09/16 08:22:05;;;;;;;;;;;;;;;21.81;75.68;96361.03;589196;240;66719;-69
2022/09/16 08:24:32;;;;;;;;;;;;;;;21.81;75.74;96355.69;589269;240;68643;-70
2022/09/16 08:27:00;;;;;;;;;;;;;;;21.80;76.00;96354.11;589338;240;65139;-70
2022/09/16 08:29:28;;;;;;;;;;;;;;;21.80;76.12;96354.11;589375;240;68712;-70
2022/09/16 08:31:56;;;;;;;;;;;;;;;21.80;76.06;96350.62;589345;240;66624;-69
2022/09/16 08:34:24;;;;;;;;;;;;;;;21.80;75.97;96350.62;589246;240;63305;-70
2022/09/16 08:36:51;;;;;;;;;;;;;;;21.80;76.02;96348.76;589236;240;68536;-69
2022/09/16 08:39:20;;;;;;;;;;;;;;;21.80;76.14;96343.41;589344;240;66424;-69
2022/09/16 08:42:04;;;;;;;;;;;;;;;21.81;76.25;96333.50;589303;240;65071;-69
2022/09/16 08:44:36;;;;;;;;;;;;;;;21.81;76.28;96342.31;589330;240;68518;-69
2022/09/16 08:47:08;;;;;;;;;;;;;;;21.81;76.19;96339.64;589355;240;68486;-69
2022/09/16 08:49:40;;;;;;;;;;;;;;;21.81;76.20;96339.64;589333;240;63052;-68
2022/09/16 08:52:17;;;;;;;;;;;;;;;21.81;76.18;96334.29;589289;240;52955;-69
2022/09/16 08:54:46;;;;;;;;;;;;;;;21.82;76.28;96324.38;589328;240;66412;-68
2022/09/16 08:57:15;;;;;;;;;;;;;;;21.83;75.27;96326.77;589288;240;65041;-68
2022/09/16 08:59:44;;;;;;;;;;;;;;;21.84;75.15;96303.49;589087;240;66512;-68
2022/09/16 09:02:29;;;;;;;;;;;;;;;21.83;76.07;96313.41;589239;240;68870;-68
2022/09/16 09:04:58;;;;;;;;;;;;;;;21.83;76.61;96316.08;589295;240;65063;-70
2022/09/16 09:07:33;;;;;;;;;;;;;;;21.83;76.50;96309.94;589263;240;68855;-67
2022/09/16 09:10:17;;;;;;;;;;;;;;;21.83;76.34;96308.05;581787;240;66756;-67
2022/09/16 09:12:59;;;;;;;;;;;;;;;21.83;76.32;96297.35;587907;240;49627;-67
2022/09/16 09:15:44;;;;;;;;;;;;;;;21.83;76.52;96297.35;582392;240;68929;-67
2022/09/16 09:18:21;;;;;;;;;;;;;;;21.83;76.63;96297.35;587719;240;51670;-68
2022/09/16 09:20:54;;;;;;;;;;;;;;;21.83;76.67;96278.62;588270;240;63285;-68
2022/09/16 09:23:33;;;;;;;;;;;;;;;21.83;76.68;96275.95;589219;240;49245;-68
2022/09/16 09:26:05;;;;;;;;;;;;;;;21.83;76.71;96286.66;589288;240;68700;-67
2022/09/16 09:28:51;;;;;;;;;;;;;;;21.84;76.94;96298.92;589278;240;66000;-68
2022/09/16 09:31:38;;;;;;;;;;;;;;;21.84;76.82;96308.84;589341;240;67130;-65
2022/09/16 09:34:32;;;;;;;;;;;;;;;21.84;76.89;96304.28;588828;240;50272;-67
2022/09/16 09:37:11;;;;;;;;;;;;;;;21.84;77.06;96303.49;588006;240;46117;-67
2022/09/16 09:39:38;;;;;;;;;;;;;;;21.84;76.39;96300.81;585038;240;51233;-67
2022/09/16 09:42:15;;;;;;;;;;;;;;;21.84;76.68;96306.95;589438;240;68701;-68
2022/09/16 09:44:49;;;;;;;;;;;;;;;21.84;76.76;96306.95;589134;240;65309;-67
2022/09/16 09:47:19;;;;;;;;;;;;;;;21.84;76.75;96309.63;589267;240;68863;-69
2022/09/16 09:49:57;;;;;;;;;;;;;;;21.85;76.99;96313.09;589271;240;74063;-67
2022/09/16 09:52:26;;;;;;;;;;;;;;;21.84;77.30;96312.30;589329;240;63215;-66
2022/09/16 09:54:55;;;;;;;;;;;;;;;21.85;76.95;96323.79;589297;240;68823;-67
2022/09/16 09:57:33;;;;;;;;;;;;;;;21.85;77.03;96324.61;589312;240;68831;-69
2022/09/16 10:00:05;;;;;;;;;;;;;;;21.85;77.10;96315.77;589301;240;63014;-67
2022/09/16 10:02:34;;;;;;;;;;;;;;;21.85;77.14;96313.91;589276;240;48706;-67
2022/09/16 10:05:02;;;;;;;;;;;;;;;21.85;77.28;96318.44;589201;240;68832;-68
2022/09/16 10:07:29;;;;;;;;;;;;;;;21.86;77.33;96318.16;589300;240;63090;-67
2022/09/16 10:10:04;;;;;;;;;;;;;;;21.86;77.35;96331.53;589339;240;68779;-68
2022/09/16 10:12:33;;;;;;;;;;;;;;;21.85;77.37;96327.28;586803;240;68467;-67
2022/09/16 10:15:01;;;;;;;;;;;;;;;21.86;77.42;96326.19;589325;240;62998;-68
2022/09/16 10:17:30;;;;;;;;;;;;;;;21.86;77.38;96331.53;589133;240;68825;-67
2022/09/16 10:20:09;;;;;;;;;;;;;;;21.87;77.47;96324.30;589059;240;66915;-68
2022/09/16 10:22:35;;;;;;;;;;;;;;;21.86;77.53;96323.52;589051;240;65229;-69
2022/09/16 10:25:06;;;;;;;;;;;;;;;21.86;77.55;96328.07;589220;240;66754;-68
2022/09/16 10:27:34;;;;;;;;;;;;;;;21.87;77.53;96324.30;589298;240;66658;-68
2022/09/16 10:30:07;;;;;;;;;;;;;;;21.87;77.62;96333.11;589115;240;63180;-68
2022/09/16 10:32:53;;;;;;;;;;;;;;;21.87;77.73;96335.00;589022;240;49451;-68
2022/09/16 10:35:22;;;;;;;;;;;;;;;21.87;77.80;96333.11;589206;240;66520;-68
2022/09/16 10:37:54;;;;;;;;;;;;;;;21.87;77.83;96322.41;589218;240;65134;-68
2022/09/16 10:40:22;;;;;;;;;;;;;;;21.88;77.82;96317.85;589071;240;68532;-68
2022/09/16 10:42:54;;;;;;;;;;;;;;;21.87;77.83;96308.25;589062;240;68734;-69
2022/09/16 10:45:32;;;;;;;;;;;;;;;21.87;77.87;96319.73;589072;240;65709;-68
2022/09/16 10:48:01;;;;;;;;;;;;;;;21.87;77.73;96321.63;589275;240;69155;-68
2022/09/16 10:50:29;;;;;;;;;;;;;;;21.88;77.59;96323.20;589335;240;68761;-67
2022/09/16 10:52:59;;;;;;;;;;;;;;;21.88;77.42;96326.69;589320;240;65043;-66
2022/09/16 10:55:37;;;;;;;;;;;;;;;21.88;77.34;96313.32;589360;240;68862;-66
2022/09/16 10:58:09;;;;;;;;;;;;;;;21.87;77.36;96317.06;589318;240;66772;-68
2022/09/16 11:00:56;;;;;;;;;;;;;;;21.88;77.35;96321.34;588962;240;65108;-68
2022/09/16 11:03:28;;;;;;;;;;;;;;;21.88;77.26;96310.64;589305;240;66759;-68
2022/09/16 11:05:57;;;;;;;;;;;;;;;21.89;77.38;96311.44;589336;240;66667;-67
2022/09/16 11:08:29;;;;;;;;;;;;;;;21.92;75.84;96319.66;588858;240;63079;-65
2022/09/16 11:11:01;;;;;;;;;;;;;;;21.93;74.75;96310.56;589357;240;68837;-69
2022/09/16 11:13:40;;;;;;;;;;;;;;;21.95;75.64;96312.92;589080;240;68744;-67
2022/09/16 11:16:13;;;;;;;;;;;;;;;21.94;76.84;96300.65;589326;240;65129;-67
2022/09/16 11:18:49;;;;;;;;;;;;;;;21.94;76.93;96300.65;589320;240;68839;-67
2022/09/16 11:21:35;;;;;;;;;;;;;;;21.92;76.93;96303.61;589256;240;68702;-67
2022/09/16 11:24:07;;;;;;;;;;;;;;;21.92;77.35;96305.49;589312;240;65368;-65
2022/09/16 11:26:41;;;;;;;;;;;;;;;21.91;77.28;96298.56;589181;240;68807;-65
2022/09/16 11:29:25;;;;;;;;;;;;;;;21.91;77.32;96298.56;589107;240;68444;-65
2022/09/16 11:32:00;;;;;;;;;;;;;;;21.91;77.38;96301.24;589399;240;65132;-68
2022/09/16 11:34:45;;;;;;;;;;;;;;;21.91;77.40;96303.91;589282;240;68820;-67
2022/09/16 11:37:23;;;;;;;;;;;;;;;21.90;77.21;96295.08;589327;240;67009;-67
2022/09/16 11:40:09;;;;;;;;;;;;;;;21.90;77.05;96297.75;589343;240;63057;-68
2022/09/16 11:42:50;;;;;;;;;;;;;;;21.91;77.03;96301.24;589341;240;66744;-67
2022/09/16 11:45:27;;;;;;;;;;;;;;;21.93;76.79;96299.05;589142;240;66837;-68
2022/09/16 11:48:00;;;;;;;;;;;;;;;21.97;76.89;96291.24;589023;240;65298;-67
2022/09/16 11:50:35;;;;;;;;;;;;;;;21.97;77.00;96278.66;587827;240;68879;-68
2022/09/16 11:53:04;;;;;;;;;;;;;;;21.98;77.05;96285.58;589330;240;68578;-67
2022/09/16 11:55:42;;;;;;;;;;;;;;;22.01;76.96;96300.25;589119;240;65324;-65
2022/09/16 11:58:11;;;;;;;;;;;;;;;22.01;76.66;96318.98;589291;240;66372;-65
2022/09/16 12:00:40;;;;;;;;;;;;;;;21.97;76.93;96342.86;588225;240;68915;-64
2022/09/16 12:03:20;;;;;;;;;;;;;;;21.97;76.83;96376.86;589351;240;63066;-64
2022/09/16 12:05:52;;;;;;;;;;;;;;;21.95;76.91;96383.27;589174;240;69206;-65
2022/09/16 12:08:24;;;;;;;;;;;;;;;21.95;76.99;96393.97;588228;240;68761;-66
2022/09/16 12:10:56;;;;;;;;;;;;;;;21.95;77.04;96379.81;589323;240;62981;-67
2022/09/16 12:13:25;;;;;;;;;;;;;;;21.94;76.95;96365.64;589336;240;68855;-64
2022/09/16 12:15:54;;;;;;;;;;;;;;;21.95;75.22;96359.20;589311;240;68827;-67
2022/09/16 12:18:23;;;;;;;;;;;;;;;21.97;75.15;96366.94;589320;240;63087;-68
2022/09/16 12:20:52;;;;;;;;;;;;;;;21.99;76.78;96382.69;589424;240;66657;-67
2022/09/16 12:23:30;;;;;;;;;;;;;;;21.97;77.06;96387.55;589113;240;68702;-67
2022/09/16 12:26:11;;;;;;;;;;;;;;;21.97;77.22;96387.55;589337;240;62948;-67
2022/09/16 12:28:46;;;;;;;;;;;;;;;21.97;77.32;96379.53;589337;240;66671;-68
2022/09/16 12:31:21;;;;;;;;;;;;;;;21.96;77.17;96384.06;589276;240;68749;-66
2022/09/16 12:33:52;;;;;;;;;;;;;;;21.97;77.10;96382.20;589219;240;65112;-67
2022/09/16 12:36:27;;;;;;;;;;;;;;;21.96;76.91;96373.36;589041;240;66718;-67
2022/09/16 12:38:57;;;;;;;;;;;;;;;21.95;76.81;96375.25;589371;240;68510;-67
2022/09/16 12:41:45;;;;;;;;;;;;;;;21.97;76.84;96379.53;589344;240;63008;-67
2022/09/16 12:44:20;;;;;;;;;;;;;;;21.97;76.87;96379.53;589350;240;68849;-66
2022/09/16 12:46:49;;;;;;;;;;;;;;;21.95;76.89;96377.92;589375;240;68187;-66
2022/09/16 12:49:33;;;;;;;;;;;;;;;21.97;76.88;96383.00;589135;240;65182;-67
2022/09/16 12:52:05;;;;;;;;;;;;;;;21.97;76.86;96379.53;589366;240;68312;-67
2022/09/16 12:54:42;;;;;;;;;;;;;;;21.97;76.88;96368.83;589388;240;68738;-67
2022/09/16 12:57:23;;;;;;;;;;;;;;;21.97;76.84;96368.83;589250;240;63050;-67
2022/09/16 12:59:58;;;;;;;;;;;;;;;21.97;76.81;96374.97;589367;240;66529;-67
2022/09/16 13:02:27;;;;;;;;;;;;;;;21.97;76.85;96379.53;589170;240;66429;-67
2022/09/16 13:04:56;;;;;;;;;;;;;;;21.97;76.93;96368.83;588943;240;63023;-67
2022/09/16 13:07:28;;;;;;;;;;;;;;;21.97;76.85;96368.83;589378;240;66314;-68